Grez-Doiceau, Belgium
Current Conditions -  °F | °C
As of 10:25 AM on Thursday 27 Nov 2014 (Local Time) from EBBE Reporting Station
Broken Clouds Broken Clouds  
Wind Chill: 48°   Ceiling: 3200
Heat Index: 48°   Visibility: 6mi
Dew Point: 46°   Wind: 2mph
Humidity: 93%   Direction: NA
Pressure: 29.74"   Gusts: NA
Location:  50.74°N, 4.7°E
Report Text: EBBE 270925Z VRB02KT 9999 FEW027 BKN032 BKN050 09/08 Q1007 BLU BLU BECMG WHT
Loading
Personal Weather Stations






























Interactive Weather Map New forecast layout! Learn more

10-Day Weather Forecast

Advertisements
Track Severe Weather on mobile